Time;durP1;ratioP1;P1;durP2;ratioP2;P2;SDS_P1;SDS_P2;PMS_P1;PMS_P2;Temp;Humidity;BMP_temperature;BMP_pressure;BME280_temperature;BME280_humidity;BME280_pressure;Samples;Min_cycle;Max_cycle;Signal;HPM_P1;HPM_P2
2022/09/08 00:00:19;;;;;;;;;;;16.40;99.90;;;;;;5061817;28;19936;-72
2022/09/08 00:02:51;;;;;;;;;;;16.40;99.90;;;;;;5070937;28;20018;-72
2022/09/08 00:05:24;;;;;;;;;;;16.30;99.90;;;;;;5074165;28;20014;-72
2022/09/08 00:07:58;;;;;;;;;;;16.30;99.90;;;;;;5084719;28;19951;-75
2022/09/08 00:10:30;;;;;;;;;;;16.30;99.90;;;;;;5059731;28;20466;-72
2022/09/08 00:13:01;;;;;;;;;;;16.30;99.90;;;;;;5057747;28;19932;-72
2022/09/08 00:15:34;;;;;;;;;;;16.30;99.90;;;;;;5087724;28;19924;-72
2022/09/08 00:18:06;;;;;;;;;;;16.30;99.90;;;;;;5070729;28;19924;-72
2022/09/08 00:20:38;;;;;;;;;;;16.40;99.90;;;;;;5069980;28;19948;-72
2022/09/08 00:23:09;;;;;;;;;;;16.50;99.90;;;;;;5064132;28;19925;-73
2022/09/08 00:25:41;;;;;;;;;;;16.50;99.90;;;;;;5084820;28;19977;-72
2022/09/08 00:28:13;;;;;;;;;;;16.40;99.90;;;;;;5071591;28;19924;-72
2022/09/08 00:30:45;;;;;;;;;;;16.40;99.90;;;;;;5070511;28;19978;-72
2022/09/08 00:33:16;;;;;;;;;;;16.40;99.90;;;;;;5057759;28;20046;-71
2022/09/08 00:35:49;;;;;;;;;;;16.40;99.90;;;;;;5078208;28;19928;-73
2022/09/08 00:38:21;;;;;;;;;;;16.50;99.90;;;;;;5067733;28;19932;-73
2022/09/08 00:40:53;;;;;;;;;;;16.50;99.90;;;;;;5085974;28;19924;-72
2022/09/08 00:43:35;;;;;;;;;;;16.50;99.90;;;;;;5080957;28;20315;-73
2022/09/08 00:46:12;;;;;;;;;;;16.50;99.90;;;;;;5070841;28;19924;-72
2022/09/08 00:48:54;;;;;;;;;;;16.50;99.90;;;;;;5076153;28;19933;-73
2022/09/08 00:51:26;;;;;;;;;;;16.50;99.90;;;;;;5085116;28;20349;-73
2022/09/08 00:53:59;;;;;;;;;;;16.50;99.90;;;;;;5072346;28;19932;-73
2022/09/08 00:56:31;;;;;;;;;;;16.50;99.90;;;;;;5080583;28;19935;-73
2022/09/08 00:59:04;;;;;;;;;;;16.50;99.90;;;;;;5078708;28;19932;-73
2022/09/08 01:01:36;;;;;;;;;;;16.50;99.90;;;;;;5082077;28;19928;-73
2022/09/08 01:04:08;;;;;;;;;;;16.40;99.90;;;;;;5086091;28;19928;-73
2022/09/08 01:12:44;;;;;;;;;;;16.00;99.90;;;;;;5079265;28;19925;-73
2022/09/08 01:15:23;;;;;;;;;;;16.00;99.90;;;;;;5073959;28;19932;-74
2022/09/08 01:17:55;;;;;;;;;;;15.90;99.90;;;;;;5076691;28;19932;-73
2022/09/08 01:20:33;;;;;;;;;;;15.90;99.90;;;;;;5079097;28;19924;-72
2022/09/08 01:23:09;;;;;;;;;;;15.90;99.90;;;;;;5073527;28;19983;-73
2022/09/08 01:26:02;;;;;;;;;;;15.90;99.90;;;;;;5072335;28;19927;-73
2022/09/08 01:28:46;;;;;;;;;;;15.90;99.90;;;;;;5089004;28;19928;-73
2022/09/08 01:31:18;;;;;;;;;;;15.90;99.90;;;;;;5071249;28;19924;-73
2022/09/08 01:33:50;;;;;;;;;;;15.90;99.90;;;;;;5064672;28;19924;-73
2022/09/08 01:36:22;;;;;;;;;;;16.00;99.90;;;;;;5066781;28;19937;-73
2022/09/08 01:38:53;;;;;;;;;;;15.90;99.90;;;;;;5076436;28;19924;-73
2022/09/08 01:41:25;;;;;;;;;;;16.10;99.90;;;;;;5083532;28;19928;-74
2022/09/08 01:43:56;;;;;;;;;;;16.00;99.90;;;;;;5074741;28;19924;-73
2022/09/08 01:46:30;;;;;;;;;;;16.10;99.90;;;;;;5051783;28;19924;-72
2022/09/08 01:49:02;;;;;;;;;;;16.00;99.90;;;;;;5061687;28;19928;-73
2022/09/08 01:51:33;;;;;;;;;;;15.90;99.90;;;;;;5057941;28;19924;-72
2022/09/08 01:54:05;;;;;;;;;;;15.90;99.90;;;;;;5081484;28;19928;-73
2022/09/08 01:56:36;;;;;;;;;;;15.90;99.90;;;;;;5073283;28;19932;-72
2022/09/08 01:59:08;;;;;;;;;;;15.90;99.90;;;;;;5066453;28;19949;-73
2022/09/08 02:01:40;;;;;;;;;;;15.90;99.90;;;;;;5077331;28;20693;-74
2022/09/08 02:04:12;;;;;;;;;;;15.80;99.90;;;;;;5073001;28;20391;-73
2022/09/08 02:06:43;;;;;;;;;;;15.80;99.90;;;;;;5079698;28;20394;-73
2022/09/08 02:09:15;;;;;;;;;;;15.80;99.90;;;;;;5064909;28;19959;-73
2022/09/08 02:11:48;;;;;;;;;;;15.80;99.90;;;;;;5077368;28;19924;-73
2022/09/08 02:14:19;;;;;;;;;;;15.80;99.90;;;;;;5077861;28;19924;-74
2022/09/08 02:16:51;;;;;;;;;;;15.80;99.90;;;;;;5086043;28;19932;-72
2022/09/08 02:19:23;;;;;;;;;;;15.80;99.90;;;;;;5069312;28;19924;-73
2022/09/08 02:21:55;;;;;;;;;;;15.70;99.90;;;;;;5079234;28;19924;-73
2022/09/08 02:24:27;;;;;;;;;;;15.70;99.90;;;;;;5059899;28;20422;-73
2022/09/08 02:26:58;;;;;;;;;;;15.70;99.90;;;;;;5057403;28;19929;-74
2022/09/08 02:29:30;;;;;;;;;;;15.80;99.90;;;;;;5084390;28;19931;-72
2022/09/08 02:32:02;;;;;;;;;;;15.80;99.90;;;;;;5056941;28;19928;-73
2022/09/08 02:34:33;;;;;;;;;;;15.80;99.90;;;;;;5084251;28;19924;-72
2022/09/08 02:37:05;;;;;;;;;;;15.80;99.90;;;;;;5078532;28;19936;-73
2022/09/08 02:39:36;;;;;;;;;;;15.80;99.90;;;;;;5064422;28;20730;-73
2022/09/08 02:42:11;;;;;;;;;;;15.70;99.90;;;;;;5069706;28;19925;-73
2022/09/08 02:44:43;;;;;;;;;;;15.70;99.90;;;;;;5076623;28;19932;-73
2022/09/08 02:47:14;;;;;;;;;;;15.70;99.90;;;;;;5072123;28;19931;-73
2022/09/08 02:49:46;;;;;;;;;;;15.70;99.90;;;;;;5062645;28;19924;-73
2022/09/08 02:52:18;;;;;;;;;;;15.80;99.90;;;;;;5063161;28;20405;-73
2022/09/08 02:54:49;;;;;;;;;;;15.70;99.90;;;;;;5078547;28;19925;-73
2022/09/08 02:57:21;;;;;;;;;;;15.70;99.90;;;;;;5085929;28;20271;-73
2022/09/08 02:59:52;;;;;;;;;;;15.70;99.90;;;;;;5078111;28;19924;-73
2022/09/08 03:02:24;;;;;;;;;;;15.70;99.90;;;;;;5085201;28;19970;-73
2022/09/08 03:04:56;;;;;;;;;;;15.70;99.90;;;;;;5078703;28;19943;-73
2022/09/08 03:07:28;;;;;;;;;;;15.70;99.90;;;;;;5073978;28;20341;-72
2022/09/08 03:09:59;;;;;;;;;;;15.80;99.90;;;;;;5060659;28;20043;-73
2022/09/08 03:12:32;;;;;;;;;;;15.80;99.90;;;;;;5069337;28;19943;-72
2022/09/08 03:15:03;;;;;;;;;;;15.80;99.90;;;;;;5072981;28;19924;-73
2022/09/08 03:17:35;;;;;;;;;;;15.80;99.90;;;;;;5088592;28;19931;-73
2022/09/08 03:20:08;;;;;;;;;;;15.80;99.90;;;;;;5085455;28;19924;-73
2022/09/08 03:22:40;;;;;;;;;;;15.70;99.90;;;;;;5071005;28;19924;-73
2022/09/08 03:25:12;;;;;;;;;;;15.70;99.90;;;;;;5051539;28;19928;-73
2022/09/08 03:27:44;;;;;;;;;;;15.70;99.90;;;;;;5082802;28;19925;-73
2022/09/08 03:30:16;;;;;;;;;;;15.60;99.90;;;;;;5065594;28;19958;-74
2022/09/08 03:32:48;;;;;;;;;;;15.70;99.90;;;;;;5084166;28;19971;-73
2022/09/08 03:35:20;;;;;;;;;;;15.80;99.90;;;;;;5079104;28;19924;-74
2022/09/08 03:37:52;;;;;;;;;;;15.70;99.90;;;;;;5070889;28;19947;-74
2022/09/08 03:40:24;;;;;;;;;;;15.70;99.90;;;;;;5078970;28;19924;-74
2022/09/08 03:42:55;;;;;;;;;;;15.70;99.90;;;;;;5074707;28;19974;-74
2022/09/08 03:45:28;;;;;;;;;;;15.70;99.90;;;;;;5061578;28;20382;-73
2022/09/08 03:48:00;;;;;;;;;;;15.70;99.90;;;;;;5065367;28;20390;-74
2022/09/08 03:50:32;;;;;;;;;;;15.70;99.90;;;;;;5085009;28;19925;-74
2022/09/08 03:53:04;;;;;;;;;;;15.70;99.90;;;;;;5076184;28;20342;-73
2022/09/08 03:55:39;;;;;;;;;;;15.70;99.90;;;;;;5084094;28;19924;-75
2022/09/08 03:58:10;;;;;;;;;;;15.70;99.90;;;;;;5087239;28;19950;-74
2022/09/08 04:00:42;;;;;;;;;;;15.70;99.90;;;;;;5067275;28;19939;-73
2022/09/08 04:03:14;;;;;;;;;;;15.70;99.90;;;;;;5082460;28;19932;-74
2022/09/08 04:05:45;;;;;;;;;;;15.60;99.90;;;;;;5077159;28;19924;-75
2022/09/08 04:08:17;;;;;;;;;;;15.70;99.90;;;;;;5086256;28;19974;-74
2022/09/08 04:10:48;;;;;;;;;;;15.60;99.90;;;;;;5079063;28;19924;-74
2022/09/08 04:13:20;;;;;;;;;;;15.60;99.90;;;;;;5080452;28;19929;-74
2022/09/08 04:15:52;;;;;;;;;;;15.70;99.90;;;;;;5079676;28;19929;-73
2022/09/08 04:18:24;;;;;;;;;;;15.60;99.90;;;;;;5083672;28;19924;-74
2022/09/08 04:20:56;;;;;;;;;;;15.60;99.90;;;;;;5069436;28;19936;-73
2022/09/08 04:23:28;;;;;;;;;;;15.60;99.90;;;;;;5054745;28;19928;-73
2022/09/08 04:26:01;;;;;;;;;;;15.60;99.90;;;;;;5067304;28;19969;-74
2022/09/08 04:28:34;;;;;;;;;;;15.60;99.90;;;;;;5082007;28;19933;-74
2022/09/08 04:31:06;;;;;;;;;;;15.60;99.90;;;;;;5076225;28;19970;-73
2022/09/08 04:33:38;;;;;;;;;;;15.70;99.90;;;;;;5074469;28;20049;-73
2022/09/08 04:36:12;;;;;;;;;;;15.70;99.90;;;;;;5083514;28;20921;-74
2022/09/08 04:38:43;;;;;;;;;;;15.70;99.90;;;;;;5071839;28;19924;-74
2022/09/08 04:41:16;;;;;;;;;;;15.70;99.90;;;;;;5080023;28;19951;-74
2022/09/08 04:43:47;;;;;;;;;;;15.70;99.90;;;;;;5082720;28;20375;-74
2022/09/08 04:46:19;;;;;;;;;;;15.70;99.90;;;;;;5080567;28;19956;-74
2022/09/08 04:48:51;;;;;;;;;;;15.70;99.90;;;;;;5063439;28;19932;-73
2022/09/08 04:51:24;;;;;;;;;;;15.60;99.90;;;;;;5063433;28;19977;-73
2022/09/08 04:53:56;;;;;;;;;;;15.60;99.90;;;;;;5066981;28;19978;-73
2022/09/08 04:56:28;;;;;;;;;;;15.60;99.90;;;;;;5074694;28;19928;-72
2022/09/08 04:59:02;;;;;;;;;;;15.60;99.90;;;;;;5082897;28;20550;-73
2022/09/08 05:01:36;;;;;;;;;;;15.60;99.90;;;;;;5076613;28;20337;-73
2022/09/08 05:04:08;;;;;;;;;;;15.60;99.90;;;;;;5076771;28;19928;-74
2022/09/08 05:06:40;;;;;;;;;;;15.60;99.90;;;;;;5073186;28;19932;-73
2022/09/08 05:09:13;;;;;;;;;;;15.50;99.90;;;;;;5081970;28;19954;-73
2022/09/08 05:11:44;;;;;;;;;;;15.60;99.90;;;;;;5075036;28;19924;-73
2022/09/08 05:14:16;;;;;;;;;;;15.50;99.90;;;;;;5074248;28;19928;-73
2022/09/08 05:16:47;;;;;;;;;;;15.50;99.90;;;;;;5071107;28;20462;-72
2022/09/08 05:19:19;;;;;;;;;;;15.50;99.90;;;;;;5074370;28;19936;-73
2022/09/08 05:21:50;;;;;;;;;;;15.50;99.90;;;;;;5075057;28;20384;-73
2022/09/08 05:24:22;;;;;;;;;;;15.50;99.90;;;;;;5071243;28;20275;-73
2022/09/08 05:26:54;;;;;;;;;;;15.50;99.90;;;;;;5073151;28;19982;-73
2022/09/08 05:29:25;;;;;;;;;;;15.50;99.90;;;;;;5075158;28;19928;-73
2022/09/08 05:31:57;;;;;;;;;;;15.50;99.90;;;;;;5060883;28;19925;-73
2022/09/08 05:34:28;;;;;;;;;;;15.50;99.90;;;;;;5068856;28;20275;-73
2022/09/08 05:37:00;;;;;;;;;;;15.50;99.90;;;;;;5067674;28;19928;-73
2022/09/08 05:39:32;;;;;;;;;;;15.50;99.90;;;;;;5083561;28;19932;-73
2022/09/08 05:42:03;;;;;;;;;;;15.50;99.90;;;;;;5060326;28;19928;-73
2022/09/08 05:44:30;;;;;;;;;;;15.50;99.90;;;;;;5063700;28;20307;-73
2022/09/08 05:47:02;;;;;;;;;;;15.50;99.90;;;;;;5084959;28;19992;-73
2022/09/08 05:49:33;;;;;;;;;;;15.50;99.90;;;;;;5065395;28;19980;-73
2022/09/08 05:52:05;;;;;;;;;;;15.60;99.90;;;;;;5063227;28;19964;-73
2022/09/08 05:54:37;;;;;;;;;;;15.60;99.90;;;;;;5079831;28;20341;-73
2022/09/08 05:57:09;;;;;;;;;;;15.60;99.90;;;;;;5082638;28;19928;-74
2022/09/08 05:59:43;;;;;;;;;;;15.60;99.90;;;;;;5059841;28;19982;-72
2022/09/08 06:02:11;;;;;;;;;;;15.60;99.90;;;;;;5074704;28;19931;-73
2022/09/08 06:04:43;;;;;;;;;;;15.60;99.90;;;;;;5059056;28;19933;-73
2022/09/08 06:07:14;;;;;;;;;;;15.60;99.90;;;;;;5059098;28;19978;-73
2022/09/08 06:09:46;;;;;;;;;;;15.60;99.90;;;;;;5076199;28;19990;-74
2022/09/08 06:12:18;;;;;;;;;;;15.60;99.90;;;;;;5062252;28;20387;-74
2022/09/08 06:14:49;;;;;;;;;;;15.50;99.90;;;;;;5052473;28;20014;-73
2022/09/08 06:17:21;;;;;;;;;;;15.60;99.90;;;;;;5073375;28;19924;-73
2022/09/08 06:19:52;;;;;;;;;;;15.50;99.90;;;;;;5054207;28;19932;-73
2022/09/08 06:22:24;;;;;;;;;;;15.60;99.90;;;;;;5070393;28;19928;-73
2022/09/08 06:24:56;;;;;;;;;;;15.50;99.90;;;;;;5070277;28;19931;-73
2022/09/08 06:27:46;;;;;;;;;;;15.50;99.90;;;;;;5068652;28;19983;-73
2022/09/08 06:30:18;;;;;;;;;;;15.50;99.90;;;;;;5064405;28;19924;-73
2022/09/08 06:32:52;;;;;;;;;;;15.50;99.90;;;;;;5074403;28;19951;-73
2022/09/08 06:35:30;;;;;;;;;;;15.50;99.90;;;;;;5074903;28;20469;-73
2022/09/08 06:38:04;;;;;;;;;;;15.50;99.90;;;;;;5065652;28;19932;-73
2022/09/08 06:40:45;;;;;;;;;;;15.50;99.90;;;;;;5076147;28;19937;-73
2022/09/08 06:43:18;;;;;;;;;;;15.50;99.90;;;;;;5059868;28;19936;-73
2022/09/08 06:45:51;;;;;;;;;;;15.50;99.90;;;;;;5049856;28;19924;-73
2022/09/08 06:48:33;;;;;;;;;;;15.50;99.90;;;;;;5040288;28;19971;-73
2022/09/08 06:51:13;;;;;;;;;;;15.50;99.90;;;;;;5073160;28;20390;-73
2022/09/08 06:53:49;;;;;;;;;;;15.60;99.90;;;;;;5071108;28;19948;-74
2022/09/08 06:56:32;;;;;;;;;;;15.60;99.90;;;;;;5082346;28;19983;-73
2022/09/08 06:59:27;;;;;;;;;;;15.60;99.90;;;;;;5084453;28;19978;-74
2022/09/08 07:02:15;;;;;;;;;;;15.60;99.90;;;;;;5075479;28;20295;-73
2022/09/08 07:04:46;;;;;;;;;;;15.60;99.90;;;;;;5071045;28;19983;-73
2022/09/08 07:07:18;;;;;;;;;;;15.60;99.90;;;;;;5078284;28;19985;-73
2022/09/08 07:09:56;;;;;;;;;;;15.70;99.90;;;;;;5071265;28;19928;-74
2022/09/08 07:12:40;;;;;;;;;;;15.70;99.90;;;;;;5065943;28;20288;-73
2022/09/08 07:15:12;;;;;;;;;;;15.70;99.90;;;;;;5068711;28;19931;-73
2022/09/08 07:17:46;;;;;;;;;;;15.70;99.90;;;;;;5074832;28;20303;-73
2022/09/08 07:20:18;;;;;;;;;;;15.70;99.90;;;;;;5074957;28;20414;-73
2022/09/08 07:22:52;;;;;;;;;;;15.70;99.90;;;;;;5062994;28;19975;-73
2022/09/08 07:25:26;;;;;;;;;;;15.80;99.90;;;;;;5065153;28;19962;-73
2022/09/08 07:28:03;;;;;;;;;;;15.80;99.90;;;;;;5062343;28;19966;-74
2022/09/08 07:30:35;;;;;;;;;;;15.80;99.90;;;;;;5071059;28;19925;-73
2022/09/08 07:33:28;;;;;;;;;;;15.80;99.90;;;;;;5069608;28;19978;-73
2022/09/08 07:36:18;;;;;;;;;;;15.90;99.90;;;;;;5057949;28;19986;-73
2022/09/08 07:38:51;;;;;;;;;;;15.90;99.90;;;;;;5073996;28;19924;-73
2022/09/08 07:41:30;;;;;;;;;;;16.00;99.90;;;;;;5076299;28;19932;-73
2022/09/08 07:44:05;;;;;;;;;;;16.00;99.90;;;;;;5071617;28;19982;-73
2022/09/08 07:46:49;;;;;;;;;;;16.00;99.90;;;;;;5084224;28;20422;-73
2022/09/08 07:49:17;;;;;;;;;;;16.00;99.90;;;;;;5059256;28;19950;-73
2022/09/08 07:52:10;;;;;;;;;;;16.10;99.90;;;;;;5049190;28;19927;-74
2022/09/08 07:54:47;;;;;;;;;;;16.10;99.90;;;;;;5067137;28;20461;-74
2022/09/08 07:57:31;;;;;;;;;;;16.10;99.90;;;;;;5063684;28;19982;-74
2022/09/08 08:00:24;;;;;;;;;;;16.20;99.90;;;;;;5073399;28;20345;-74
2022/09/08 08:03:12;;;;;;;;;;;16.30;99.90;;;;;;5065340;28;19940;-74
2022/09/08 08:05:41;;;;;;;;;;;16.30;99.90;;;;;;5061413;28;19930;-74
2022/09/08 08:08:36;;;;;;;;;;;16.40;99.90;;;;;;5059939;28;19971;-74
2022/09/08 08:11:12;;;;;;;;;;;16.40;99.90;;;;;;5074300;28;20076;-74
2022/09/08 08:13:57;;;;;;;;;;;16.50;99.90;;;;;;5074617;28;19933;-74
2022/09/08 08:16:35;;;;;;;;;;;16.50;99.90;;;;;;5053431;28;19931;-74
2022/09/08 08:19:19;;;;;;;;;;;16.40;99.90;;;;;;5075139;28;20371;-73
2022/09/08 08:21:57;;;;;;;;;;;16.40;99.90;;;;;;5078514;28;19928;-74
2022/09/08 08:24:44;;;;;;;;;;;16.40;99.90;;;;;;5078002;28;19928;-74
2022/09/08 08:27:19;;;;;;;;;;;16.40;99.90;;;;;;5061413;28;19928;-73
2022/09/08 08:30:01;;;;;;;;;;;16.50;99.90;;;;;;5055933;28;19932;-73
2022/09/08 08:32:38;;;;;;;;;;;16.60;99.90;;;;;;5041530;28;19933;-74
2022/09/08 08:35:18;;;;;;;;;;;16.50;99.90;;;;;;5075394;28;19924;-73
2022/09/08 08:37:51;;;;;;;;;;;16.50;99.90;;;;;;5052475;28;19924;-74
2022/09/08 08:40:28;;;;;;;;;;;16.70;99.90;;;;;;5066765;28;19928;-74
2022/09/08 08:43:14;;;;;;;;;;;16.70;99.90;;;;;;5045453;28;19928;-74
2022/09/08 08:45:56;;;;;;;;;;;16.80;99.90;;;;;;5061389;28;20374;-74
2022/09/08 08:48:35;;;;;;;;;;;16.80;99.90;;;;;;5068040;28;19932;-73
2022/09/08 08:51:15;;;;;;;;;;;16.90;99.90;;;;;;5042877;28;19954;-73
2022/09/08 08:54:06;;;;;;;;;;;16.90;99.90;;;;;;5062003;28;19932;-73
2022/09/08 08:56:39;;;;;;;;;;;16.90;99.90;;;;;;5078600;28;19924;-73
2022/09/08 08:59:11;;;;;;;;;;;16.80;99.90;;;;;;5053521;28;19928;-73
2022/09/08 09:02:03;;;;;;;;;;;16.70;99.90;;;;;;5061332;28;19932;-75
2022/09/08 09:04:44;;;;;;;;;;;16.60;99.90;;;;;;5064118;28;20322;-73
2022/09/08 09:07:22;;;;;;;;;;;16.60;99.90;;;;;;5037628;28;20358;-73
2022/09/08 09:09:56;;;;;;;;;;;16.60;99.90;;;;;;5076316;28;19933;-74
2022/09/08 09:12:29;;;;;;;;;;;16.60;99.90;;;;;;5057399;28;20338;-73
2022/09/08 09:15:20;;;;;;;;;;;16.60;99.90;;;;;;5076912;28;19939;-73
2022/09/08 09:17:52;;;;;;;;;;;16.60;99.90;;;;;;5036643;28;20413;-73
2022/09/08 09:20:24;;;;;;;;;;;16.70;99.90;;;;;;5058905;28;20310;-73
2022/09/08 09:23:10;;;;;;;;;;;16.70;99.90;;;;;;5070530;28;20747;-73
2022/09/08 09:25:52;;;;;;;;;;;16.70;99.90;;;;;;5057943;28;20330;-73
2022/09/08 09:28:24;;;;;;;;;;;16.70;99.90;;;;;;5074050;28;19997;-73
2022/09/08 09:31:14;;;;;;;;;;;16.80;99.90;;;;;;5070674;28;19991;-73
2022/09/08 09:34:04;;;;;;;;;;;16.80;99.90;;;;;;5074599;28;19986;-73
2022/09/08 09:36:42;;;;;;;;;;;16.80;99.90;;;;;;5076957;28;19928;-73
2022/09/08 09:39:26;;;;;;;;;;;16.90;99.90;;;;;;5071025;28;20392;-73
2022/09/08 09:42:29;;;;;;;;;;;17.00;99.90;;;;;;5048950;28;19923;-74
2022/09/08 09:45:19;;;;;;;;;;;17.10;99.90;;;;;;5062123;28;20335;-73
2022/09/08 09:47:57;;;;;;;;;;;17.10;99.90;;;;;;5057998;28;20054;-73
2022/09/08 09:50:47;;;;;;;;;;;17.20;99.90;;;;;;5075855;28;19968;-73
2022/09/08 09:53:20;;;;;;;;;;;17.40;99.90;;;;;;5057919;28;19928;-73
2022/09/08 09:56:04;;;;;;;;;;;17.50;99.90;;;;;;5034786;28;20390;-73
2022/09/08 09:58:31;;;;;;;;;;;17.70;99.90;;;;;;5063397;28;20402;-73
2022/09/08 10:01:08;;;;;;;;;;;17.90;99.90;;;;;;5058410;28;20310;-73
2022/09/08 10:03:58;;;;;;;;;;;18.00;99.90;;;;;;5063797;28;19927;-73
2022/09/08 10:06:30;;;;;;;;;;;18.10;99.90;;;;;;5070798;28;19981;-73
2022/09/08 10:09:20;;;;;;;;;;;18.20;99.90;;;;;;5058831;28;19986;-73
2022/09/08 10:12:14;;;;;;;;;;;18.30;99.90;;;;;;5070421;28;19932;-73
2022/09/08 10:14:59;;;;;;;;;;;18.40;99.90;;;;;;5074875;28;19928;-73
2022/09/08 10:17:50;;;;;;;;;;;18.60;99.90;;;;;;5077933;28;20343;-73
2022/09/08 10:20:26;;;;;;;;;;;18.80;99.90;;;;;;5072908;28;19928;-73
2022/09/08 10:23:17;;;;;;;;;;;19.00;99.90;;;;;;5059409;28;20439;-74
2022/09/08 10:26:05;;;;;;;;;;;19.00;99.90;;;;;;5061715;28;20481;-73
2022/09/08 10:28:37;;;;;;;;;;;19.00;99.90;;;;;;5057487;28;20341;-73
2022/09/08 10:31:22;;;;;;;;;;;19.00;99.90;;;;;;5060399;28;20404;-74
2022/09/08 10:34:07;;;;;;;;;;;19.00;99.90;;;;;;5072830;28;19977;-74
2022/09/08 10:36:51;;;;;;;;;;;19.10;99.90;;;;;;5052024;28;19928;-73
2022/09/08 10:39:37;;;;;;;;;;;19.20;99.90;;;;;;5076934;28;19932;-73
2022/09/08 10:42:12;;;;;;;;;;;19.20;99.90;;;;;;5057240;28;19954;-74
2022/09/08 10:45:08;;;;;;;;;;;19.10;99.90;;;;;;5075550;28;19929;-73
2022/09/08 10:47:44;;;;;;;;;;;19.00;99.90;;;;;;5068755;28;20387;-73
2022/09/08 10:50:15;;;;;;;;;;;19.10;99.90;;;;;;5039601;28;19924;-73
2022/09/08 10:53:00;;;;;;;;;;;19.20;99.90;;;;;;5059937;28;19978;-73
2022/09/08 10:55:46;;;;;;;;;;;19.30;99.90;;;;;;5078868;28;19924;-74
2022/09/08 10:58:36;;;;;;;;;;;19.50;99.90;;;;;;5065291;28;19924;-73
2022/09/08 11:01:23;;;;;;;;;;;19.70;99.90;;;;;;5043789;28;19931;-73
2022/09/08 11:03:57;;;;;;;;;;;19.80;99.90;;;;;;5079141;28;19979;-73
2022/09/08 11:06:35;;;;;;;;;;;19.90;99.90;;;;;;5076035;28;19928;-73
2022/09/08 11:09:06;;;;;;;;;;;19.90;99.90;;;;;;5059196;28;19953;-73
2022/09/08 11:12:00;;;;;;;;;;;20.00;99.90;;;;;;5080007;28;19953;-73
2022/09/08 11:14:31;;;;;;;;;;;20.20;99.90;;;;;;5039026;28;20407;-74
2022/09/08 11:17:21;;;;;;;;;;;20.40;99.90;;;;;;5060940;28;19932;-74
2022/09/08 11:20:07;;;;;;;;;;;20.50;99.90;;;;;;5086013;28;19961;-73
2022/09/08 11:22:50;;;;;;;;;;;20.60;99.90;;;;;;5073305;28;19924;-74
2022/09/08 11:25:25;;;;;;;;;;;20.70;99.90;;;;;;5073670;28;20394;-74
2022/09/08 11:28:04;;;;;;;;;;;20.70;99.90;;;;;;5065529;28;19928;-74
2022/09/08 11:30:43;;;;;;;;;;;20.70;99.90;;;;;;5057380;28;19935;-74
2022/09/08 11:33:31;;;;;;;;;;;20.90;99.90;;;;;;5061830;28;19933;-74
2022/09/08 11:36:15;;;;;;;;;;;21.10;99.90;;;;;;5061550;28;19975;-74
2022/09/08 11:39:02;;;;;;;;;;;21.10;99.90;;;;;;5062955;28;20346;-73
2022/09/08 11:41:53;;;;;;;;;;;21.10;99.90;;;;;;5080090;28;19928;-74
2022/09/08 11:44:43;;;;;;;;;;;21.10;99.90;;;;;;5055380;28;19990;-73
2022/09/08 11:47:34;;;;;;;;;;;21.00;99.90;;;;;;5068365;28;19936;-73
2022/09/08 11:50:13;;;;;;;;;;;20.90;99.90;;;;;;5069160;28;19982;-73
2022/09/08 11:52:50;;;;;;;;;;;20.90;99.90;;;;;;5076339;28;20414;-73
2022/09/08 11:55:22;;;;;;;;;;;20.90;99.90;;;;;;5062088;28;19950;-73
2022/09/08 11:58:01;;;;;;;;;;;20.80;99.90;;;;;;5079648;28;19936;-73
2022/09/08 12:00:47;;;;;;;;;;;20.80;99.90;;;;;;5055357;28;19925;-74
2022/09/08 12:03:38;;;;;;;;;;;20.90;99.90;;;;;;5043804;28;20280;-73
2022/09/08 12:06:07;;;;;;;;;;;21.00;99.90;;;;;;5056863;28;19929;-73
2022/09/08 12:08:56;;;;;;;;;;;21.10;99.90;;;;;;5075440;28;20395;-73
2022/09/08 12:11:40;;;;;;;;;;;21.20;99.90;;;;;;5073397;28;19924;-73
2022/09/08 12:14:11;;;;;;;;;;;21.40;99.90;;;;;;5064619;28;20399;-73
2022/09/08 12:16:46;;;;;;;;;;;21.50;99.90;;;;;;5047202;28;19978;-73
2022/09/08 12:19:36;;;;;;;;;;;21.70;99.90;;;;;;5081147;28;19927;-73
2022/09/08 12:22:29;;;;;;;;;;;21.60;99.90;;;;;;5079096;28;19928;-73
2022/09/08 12:25:04;;;;;;;;;;;21.40;99.90;;;;;;5071992;28;19937;-73
2022/09/08 12:28:14;;;;;;;;;;;21.40;99.90;;;;;;5068783;28;20497;-73
2022/09/08 12:30:46;;;;;;;;;;;21.40;99.90;;;;;;4979983;28;20368;-73
2022/09/08 12:33:28;;;;;;;;;;;21.50;99.90;;;;;;4965141;28;19926;-73
2022/09/08 12:36:19;;;;;;;;;;;21.70;99.90;;;;;;5040784;28;19924;-73
2022/09/08 12:39:00;;;;;;;;;;;21.60;99.90;;;;;;5070426;28;19924;-73
2022/09/08 12:41:48;;;;;;;;;;;21.30;99.90;;;;;;5063116;28;19931;-73
2022/09/08 12:44:30;;;;;;;;;;;21.00;99.90;;;;;;5076845;28;19932;-73
2022/09/08 12:47:24;;;;;;;;;;;20.90;99.90;;;;;;5055979;28;20440;-73
2022/09/08 12:50:02;;;;;;;;;;;20.80;99.90;;;;;;5050888;28;20075;-73
2022/09/08 12:52:36;;;;;;;;;;;20.70;99.90;;;;;;5073517;28;19928;-73
2022/09/08 12:55:19;;;;;;;;;;;20.80;99.90;;;;;;5076024;28;19947;-73
2022/09/08 12:57:55;;;;;;;;;;;20.80;99.90;;;;;;5055821;28;19967;-73
2022/09/08 13:00:34;;;;;;;;;;;20.90;99.90;;;;;;5077815;28;19932;-73
2022/09/08 13:03:14;;;;;;;;;;;20.90;99.90;;;;;;5081241;28;19950;-73
2022/09/08 13:06:04;;;;;;;;;;;21.00;99.90;;;;;;5056299;28;19994;-73
2022/09/08 13:08:53;;;;;;;;;;;20.90;99.90;;;;;;5056551;28;19937;-73
2022/09/08 13:11:30;;;;;;;;;;;20.70;99.90;;;;;;5075992;28;19932;-73
2022/09/08 13:14:08;;;;;;;;;;;20.40;99.90;;;;;;5038689;28;20299;-73
2022/09/08 13:16:40;;;;;;;;;;;20.30;99.90;;;;;;5052756;28;19982;-73
2022/09/08 13:19:27;;;;;;;;;;;20.20;99.90;;;;;;5072544;28;19924;-73
2022/09/08 13:22:20;;;;;;;;;;;20.50;99.90;;;;;;5071238;28;19979;-73
2022/09/08 13:25:09;;;;;;;;;;;20.60;99.90;;;;;;5049494;28;19928;-72
2022/09/08 13:27:45;;;;;;;;;;;20.90;99.90;;;;;;5055610;28;19970;-71
2022/09/08 13:30:15;;;;;;;;;;;21.00;99.90;;;;;;5071738;28;19974;-74
2022/09/08 13:32:49;;;;;;;;;;;21.20;99.90;;;;;;5074325;28;19928;-73
2022/09/08 13:35:16;;;;;;;;;;;21.40;99.90;;;;;;5079034;28;19924;-73
2022/09/08 13:38:00;;;;;;;;;;;21.40;99.90;;;;;;5048917;28;19929;-73
2022/09/08 13:40:51;;;;;;;;;;;21.50;99.90;;;;;;5082683;28;20438;-73
2022/09/08 13:43:35;;;;;;;;;;;21.70;99.90;;;;;;5050985;28;20647;-73
2022/09/08 13:46:25;;;;;;;;;;;21.70;99.90;;;;;;5059678;28;19937;-72
2022/09/08 13:49:15;;;;;;;;;;;21.70;99.90;;;;;;5052697;28;19933;-72
2022/09/08 13:52:02;;;;;;;;;;;21.90;99.90;;;;;;5049708;28;19936;-73
2022/09/08 13:54:57;;;;;;;;;;;22.00;99.90;;;;;;5053340;28;19924;-73
2022/09/08 13:57:27;;;;;;;;;;;21.90;99.90;;;;;;5054858;28;20449;-73
2022/09/08 14:00:14;;;;;;;;;;;22.10;99.90;;;;;;5038586;28;19959;-73
2022/09/08 14:02:54;;;;;;;;;;;22.20;99.90;;;;;;5074638;28;19948;-73
2022/09/08 14:05:29;;;;;;;;;;;22.40;99.90;;;;;;5060308;28;19925;-73
2022/09/08 14:08:13;;;;;;;;;;;22.30;99.90;;;;;;5069490;28;19947;-73
2022/09/08 14:10:50;;;;;;;;;;;22.50;99.90;;;;;;5052190;28;20026;-72
2022/09/08 14:13:28;;;;;;;;;;;22.50;99.90;;;;;;5078667;28;19924;-73
2022/09/08 14:16:06;;;;;;;;;;;22.50;99.90;;;;;;5063989;28;20398;-73
2022/09/08 14:18:37;;;;;;;;;;;22.40;99.90;;;;;;5072873;28;19986;-72
2022/09/08 14:21:18;;;;;;;;;;;22.60;99.90;;;;;;5081379;28;19928;-73
2022/09/08 14:23:50;;;;;;;;;;;22.70;99.90;;;;;;5048021;28;19971;-72
2022/09/08 14:26:20;;;;;;;;;;;22.70;99.90;;;;;;5070809;28;19924;-72
2022/09/08 14:28:54;;;;;;;;;;;22.60;99.90;;;;;;5056533;28;20395;-73
2022/09/08 14:31:32;;;;;;;;;;;22.70;99.90;;;;;;5064722;28;19932;-73
2022/09/08 14:34:17;;;;;;;;;;;22.60;99.90;;;;;;5073816;28;20376;-73
2022/09/08 14:36:58;;;;;;;;;;;22.80;99.90;;;;;;5084223;28;19928;-73
2022/09/08 14:39:45;;;;;;;;;;;22.50;99.90;;;;;;5061365;28;20398;-73
2022/09/08 14:42:19;;;;;;;;;;;22.70;99.90;;;;;;5052528;28;19975;-73
2022/09/08 14:45:00;;;;;;;;;;;22.70;99.90;;;;;;5075455;28;19924;-73
2022/09/08 14:47:55;;;;;;;;;;;22.70;99.90;;;;;;5065144;28;19928;-73
2022/09/08 14:50:40;;;;;;;;;;;23.10;99.90;;;;;;5072760;28;20370;-73
2022/09/08 14:53:21;;;;;;;;;;;22.90;99.90;;;;;;5080502;28;19928;-73
2022/09/08 14:56:03;;;;;;;;;;;22.90;99.90;;;;;;5079803;28;19975;-73
2022/09/08 14:59:07;;;;;;;;;;;23.30;99.90;;;;;;5061961;28;19928;-73
2022/09/08 15:01:40;;;;;;;;;;;23.70;99.90;;;;;;5046368;28;19931;-73
2022/09/08 15:04:21;;;;;;;;;;;24.10;99.90;;;;;;5059145;28;19928;-73
2022/09/08 15:06:49;;;;;;;;;;;24.30;99.90;;;;;;5070058;28;19924;-73
2022/09/08 15:09:28;;;;;;;;;;;24.00;99.90;;;;;;5066915;28;19924;-73
2022/09/08 15:12:12;;;;;;;;;;;23.90;99.90;;;;;;5044267;28;19925;-73
2022/09/08 15:14:46;;;;;;;;;;;24.00;99.90;;;;;;5076137;28;20390;-73
2022/09/08 15:17:27;;;;;;;;;;;24.00;99.90;;;;;;5066133;28;19955;-74
2022/09/08 15:20:08;;;;;;;;;;;24.10;99.90;;;;;;5042361;28;19962;-73